createdAt,value
2018-06-11T00:00:03.090Z,1013.27
2018-06-11T00:05:03.678Z,1013.33
2018-06-11T00:10:03.293Z,1013.27
2018-06-11T00:15:02.920Z,1013.31
2018-06-11T00:20:03.567Z,1013.35
2018-06-11T00:25:03.151Z,1013.36
2018-06-11T00:30:02.767Z,1013.35
2018-06-11T00:35:03.376Z,1013.37
2018-06-11T00:40:02.984Z,1013.36
2018-06-11T00:45:03.575Z,1013.33
2018-06-11T00:50:03.164Z,1013.27
2018-06-11T00:55:02.698Z,1013.33
2018-06-11T01:00:03.326Z,1013.39
2018-06-11T01:05:02.946Z,1013.3
2018-06-11T01:10:03.590Z,1013.33
2018-06-11T01:15:03.163Z,1013.33
2018-06-11T01:20:02.816Z,1013.25
2018-06-11T01:25:03.468Z,1013.17
2018-06-11T01:30:03.014Z,1013.06
2018-06-11T01:35:03.621Z,1013.13
2018-06-11T01:40:03.291Z,1012.96
2018-06-11T01:45:02.920Z,1012.8
2018-06-11T01:50:03.520Z,1012.83
2018-06-11T01:55:03.104Z,1012.84
2018-06-11T02:00:02.733Z,1012.9
2018-06-11T02:05:03.340Z,1012.92
2018-06-11T02:10:02.967Z,1012.84
2018-06-11T02:15:03.656Z,1012.74
2018-06-11T02:20:03.299Z,1012.66
2018-06-11T02:25:02.931Z,1012.76
2018-06-11T02:30:03.573Z,1012.67
2018-06-11T02:35:03.232Z,1012.62
2018-06-11T02:40:02.841Z,1012.61
2018-06-11T02:45:03.508Z,1012.64
2018-06-11T02:50:03.153Z,1012.71
2018-06-11T02:55:02.792Z,1012.65
2018-06-11T03:00:03.394Z,1012.63
2018-06-11T03:05:02.970Z,1012.66
2018-06-11T03:10:03.681Z,1012.6
2018-06-11T03:15:03.407Z,1012.6
2018-06-11T03:20:03.005Z,1012.55
2018-06-11T03:25:03.588Z,1012.67
2018-06-11T03:30:03.357Z,1012.73
2018-06-11T03:35:02.986Z,1012.79
2018-06-11T03:40:03.644Z,1012.72
2018-06-11T03:45:03.216Z,1012.78
2018-06-11T03:50:02.883Z,1012.77
2018-06-11T03:55:03.532Z,1012.8
2018-06-11T04:00:03.418Z,1012.79
2018-06-11T04:05:03.098Z,1012.78
2018-06-11T04:10:02.804Z,1012.76
2018-06-11T04:15:03.440Z,1012.74
2018-06-11T04:20:03.076Z,1012.82
2018-06-11T04:25:03.727Z,1012.74
2018-06-11T04:30:03.264Z,1012.88
2018-06-11T04:35:02.853Z,1012.95
2018-06-11T04:40:03.474Z,1012.97
2018-06-11T04:45:03.052Z,1013.05
2018-06-11T04:50:03.626Z,1013.03
2018-06-11T04:55:03.360Z,1013.03
2018-06-11T05:00:03.036Z,1013.03
2018-06-11T05:05:03.775Z,1012.92
2018-06-11T05:10:03.719Z,1012.8
2018-06-11T05:15:03.405Z,1012.68
2018-06-11T05:20:03.172Z,1012.7
2018-06-11T05:25:02.831Z,1012.67
2018-06-11T05:30:03.453Z,1012.78
2018-06-11T05:35:03.087Z,1012.83
2018-06-11T05:40:02.688Z,1012.92
2018-06-11T05:45:03.331Z,1012.88
2018-06-11T05:50:02.913Z,1012.95
2018-06-11T05:55:03.518Z,1013
2018-06-11T06:00:03.182Z,1013.04
2018-06-11T06:05:02.850Z,1012.93
2018-06-11T06:10:03.542Z,1012.92
2018-06-11T06:15:03.288Z,1013.02
2018-06-11T06:20:03.002Z,1013.03
2018-06-11T06:25:03.661Z,1013.1
2018-06-11T06:30:03.260Z,1013.08
2018-06-11T06:35:02.911Z,1013.18
2018-06-11T06:40:03.646Z,1013.17
2018-06-11T06:45:03.299Z,1013.06
2018-06-11T06:50:03.003Z,1013.09
2018-06-11T06:55:03.605Z,1013.06
2018-06-11T07:00:03.375Z,1013.01
2018-06-11T07:05:03.034Z,1013.02
2018-06-11T07:10:03.674Z,1013.04
2018-06-11T07:15:03.509Z,1013.13
2018-06-11T07:20:03.178Z,1013.13
2018-06-11T07:25:02.801Z,1013.03
2018-06-11T07:30:03.410Z,1013.04
2018-06-11T07:35:03.415Z,1013.05
2018-06-11T07:40:03.209Z,1013.01
2018-06-11T07:45:02.830Z,1013.12
2018-06-11T07:50:03.425Z,1013.09
2018-06-11T07:55:03.053Z,1013.03
2018-06-11T08:00:04.087Z,1013.12
2018-06-11T08:05:02.929Z,1013.14
2018-06-11T08:10:03.621Z,1013.06
2018-06-11T08:15:03.215Z,1013.03
2018-06-11T08:20:02.876Z,1013.03
2018-06-11T08:25:03.477Z,1013
2018-06-11T08:30:03.079Z,1012.93
2018-06-11T08:35:02.737Z,1012.77
2018-06-11T08:40:03.598Z,1012.77
2018-06-11T08:45:03.250Z,1012.8
2018-06-11T08:50:03.105Z,1012.77
2018-06-11T08:55:02.915Z,1012.66
2018-06-11T09:00:03.775Z,1012.74
2018-06-11T09:05:03.499Z,1012.8
2018-06-11T09:10:03.221Z,1012.71
2018-06-11T09:15:02.909Z,1012.77
2018-06-11T09:20:03.681Z,1012.78
2018-06-11T09:25:03.752Z,1012.77
2018-06-11T09:30:03.579Z,1012.79
2018-06-11T09:35:03.240Z,1012.88
2018-06-11T09:40:02.922Z,1012.82
2018-06-11T09:45:03.640Z,1012.94
2018-06-11T09:50:03.370Z,1012.96
2018-06-11T09:55:02.954Z,1013.03
2018-06-11T10:00:03.577Z,1012.92
2018-06-11T10:05:03.298Z,1012.84
2018-06-11T10:10:02.995Z,1012.7
2018-06-11T10:15:03.573Z,1012.77
2018-06-11T10:20:03.213Z,1012.78
2018-06-11T10:25:02.875Z,1012.75
2018-06-11T10:30:03.519Z,1012.63
2018-06-11T10:35:03.180Z,1012.58
2018-06-11T10:40:02.817Z,1012.59
2018-06-11T10:45:03.523Z,1012.58
2018-06-11T10:50:03.094Z,1012.58
2018-06-11T10:55:02.727Z,1012.43
2018-06-11T11:00:03.335Z,1012.52
2018-06-11T11:05:03.028Z,1012.33
2018-06-11T11:10:02.748Z,1012.3
2018-06-11T11:15:03.547Z,1012.26
2018-06-11T11:20:03.304Z,1012.2
2018-06-11T11:25:02.993Z,1012.11
2018-06-11T11:30:03.589Z,1012.03
2018-06-11T11:35:03.283Z,1012.11
2018-06-11T11:40:04.578Z,1012.08
2018-06-11T11:45:04.398Z,1012.08
2018-06-11T11:50:02.968Z,1011.99
2018-06-11T11:55:03.600Z,1011.9
2018-06-11T12:00:03.245Z,1011.7
2018-06-11T12:05:02.995Z,1011.69
2018-06-11T12:10:03.678Z,1011.61
2018-06-11T12:15:03.288Z,1011.55
2018-06-11T12:20:02.924Z,1011.47
2018-06-11T12:25:03.592Z,1011.41
2018-06-11T12:30:03.195Z,1011.37
2018-06-11T12:35:02.765Z,1011.36
2018-06-11T12:40:03.483Z,1011.36
2018-06-11T12:45:03.068Z,1011.24
2018-06-11T12:50:03.706Z,1011.16
2018-06-11T12:55:03.379Z,1011.06
2018-06-11T13:00:02.947Z,1011.04
2018-06-11T13:05:03.695Z,1010.95
2018-06-11T13:10:03.365Z,1010.85
2018-06-11T13:15:02.939Z,1010.81
2018-06-11T13:20:03.845Z,1010.72
2018-06-11T13:25:03.489Z,1010.69
2018-06-11T13:30:03.097Z,1010.68
2018-06-11T13:35:02.826Z,1010.64
2018-06-11T13:40:03.567Z,1010.59
2018-06-11T13:45:03.263Z,1010.54
2018-06-11T13:50:02.957Z,1010.53
2018-06-11T13:55:03.585Z,1010.59
2018-06-11T14:00:03.227Z,1010.6
2018-06-11T14:05:02.849Z,1010.56
2018-06-11T14:10:03.532Z,1010.51
2018-06-11T14:15:03.109Z,1010.46
2018-06-11T14:20:02.791Z,1010.31
2018-06-11T14:25:03.625Z,1010.34
2018-06-11T14:30:03.252Z,1010.31
2018-06-11T14:35:02.922Z,1010.37
2018-06-11T14:40:03.563Z,1010.35
2018-06-11T14:45:03.194Z,1010.35
2018-06-11T14:50:02.944Z,1010.53
2018-06-11T14:55:03.517Z,1010.47
2018-06-11T15:00:03.147Z,1010.52
2018-06-11T15:05:02.964Z,1010.66
2018-06-11T15:10:03.556Z,1010.64
2018-06-11T15:15:03.213Z,1010.41
2018-06-11T15:20:02.888Z,1010.29
2018-06-11T15:25:03.578Z,1010.24
2018-06-11T15:30:03.235Z,1010.3
2018-06-11T15:35:02.914Z,1010.23
2018-06-11T15:40:03.558Z,1010.37
2018-06-11T15:45:03.291Z,1010.3
2018-06-11T15:50:03.159Z,1010.37
2018-06-11T15:55:02.796Z,1010.29
2018-06-11T16:00:03.394Z,1010.19
2018-06-11T16:05:03.004Z,1010.12
2018-06-11T16:10:03.676Z,1010.03
2018-06-11T16:15:03.258Z,1010
2018-06-11T16:20:02.863Z,1010
2018-06-11T16:25:03.537Z,1010.04
2018-06-11T16:30:03.163Z,1010.03
2018-06-11T16:35:02.776Z,1009.99
2018-06-11T16:40:03.483Z,1009.93
2018-06-11T16:45:03.081Z,1009.93
2018-06-11T16:50:03.714Z,1009.91
2018-06-11T16:55:03.264Z,1010
2018-06-11T17:00:02.897Z,1010.04
2018-06-11T17:05:03.595Z,1010.09
2018-06-11T17:10:03.264Z,1010.2
2018-06-11T17:15:02.916Z,1010.22
2018-06-11T17:20:03.735Z,1010.22
2018-06-11T17:25:03.427Z,1010.28
2018-06-11T17:30:03.005Z,1010.29
2018-06-11T17:35:03.679Z,1010.38
2018-06-11T17:40:03.400Z,1010.42
2018-06-11T17:45:03.043Z,1010.38
2018-06-11T17:50:03.697Z,1010.4
2018-06-11T17:55:03.341Z,1010.35
2018-06-11T18:00:02.977Z,1010.29
2018-06-11T18:05:03.633Z,1010.36
2018-06-11T18:10:03.364Z,1010.32
2018-06-11T18:15:02.965Z,1010.29
2018-06-11T18:20:03.604Z,1010.22
2018-06-11T18:25:03.255Z,1010.29
2018-06-11T18:30:02.960Z,1010.21
2018-06-11T18:35:03.590Z,1010.22
2018-06-11T18:40:03.258Z,1010.22
2018-06-11T18:45:03.029Z,1010.1
2018-06-11T18:50:02.780Z,1010.13
2018-06-11T18:55:03.489Z,1010.11
2018-06-11T19:00:03.119Z,1010.08
2018-06-11T19:05:02.882Z,1010.15
2018-06-11T19:10:03.674Z,1010.21
2018-06-11T19:15:03.349Z,1010.29
2018-06-11T19:20:03.040Z,1010.4
2018-06-11T19:25:03.669Z,1010.45
2018-06-11T19:30:03.305Z,1010.51
2018-06-11T19:35:03.298Z,1010.7
2018-06-11T19:40:03.120Z,1010.77
2018-06-11T19:45:02.769Z,1010.86
2018-06-11T19:50:04.036Z,1010.83
2018-06-11T19:55:02.879Z,1010.88
2018-06-11T20:00:03.547Z,1010.96
2018-06-11T20:05:03.208Z,1010.97
2018-06-11T20:10:02.920Z,1011.03
2018-06-11T20:15:03.569Z,1011.09
2018-06-11T20:20:03.187Z,1011.11
2018-06-11T20:25:02.775Z,1011.22
2018-06-11T20:30:03.419Z,1011.22
2018-06-11T20:35:03.025Z,1011.26
2018-06-11T20:40:02.722Z,1011.26
2018-06-11T20:45:03.465Z,1011.28
2018-06-11T20:50:03.102Z,1011.29
2018-06-11T20:55:02.804Z,1011.24
2018-06-11T21:00:03.431Z,1011.25
2018-06-11T21:05:03.024Z,1011.24
2018-06-11T21:10:02.669Z,1011.31
2018-06-11T21:15:03.279Z,1011.32
2018-06-11T21:20:02.836Z,1011.25
2018-06-11T21:25:03.453Z,1011.34
2018-06-11T21:30:03.135Z,1011.3
2018-06-11T21:35:02.837Z,1011.31
2018-06-11T21:40:03.522Z,1011.26
2018-06-11T21:45:03.153Z,1011.3
2018-06-11T21:50:02.760Z,1011.27
2018-06-11T21:55:03.379Z,1011.3
2018-06-11T22:00:02.975Z,1011.32
2018-06-11T22:05:03.684Z,1011.31
2018-06-11T22:10:03.346Z,1011.31
2018-06-11T22:15:02.970Z,1011.3
2018-06-11T22:20:03.580Z,1011.32
2018-06-11T22:25:03.170Z,1011.4
2018-06-11T22:30:02.761Z,1011.41
2018-06-11T22:35:03.385Z,1011.43
2018-06-11T22:40:02.985Z,1011.49
2018-06-11T22:45:03.624Z,1011.53
2018-06-11T22:50:03.217Z,1011.6
2018-06-11T22:55:02.802Z,1011.58
2018-06-11T23:00:03.386Z,1011.58
2018-06-11T23:05:03.580Z,1011.6
2018-06-11T23:10:03.217Z,1011.64
2018-06-11T23:15:02.938Z,1011.75
2018-06-11T23:20:03.582Z,1011.82
2018-06-11T23:25:03.205Z,1011.78
2018-06-11T23:30:02.793Z,1011.8
2018-06-11T23:35:03.438Z,1011.68
2018-06-11T23:40:03.034Z,1011.59
2018-06-11T23:45:03.592Z,1011.59
2018-06-11T23:50:03.227Z,1011.66
2018-06-11T23:55:02.854Z,1011.73
